Time;durP1;ratioP1;P1;durP2;ratioP2;P2;SDS_P1;SDS_P2;PMS_P1;PMS_P2;Temp;Humidity;BMP_temperature;BMP_pressure;BME280_temperature;BME280_humidity;BME280_pressure;Samples;Min_cycle;Max_cycle;Signal;HPM_P1;HPM_P2
2022/06/13 00:00:56;;;;;;;;;;;;;;;;;;5051623;28;877;-72
2022/06/13 00:03:22;;;;;;;;;;;;;;;;;;5042099;28;1436;-70
2022/06/13 00:05:48;;;;;;;;;;;;;;;;;;5040115;28;1918;-71
2022/06/13 00:08:14;;;;;;;;;;;;;;;;;;5031252;28;1312;-71
2022/06/13 00:10:41;;;;;;;;;;;;;;;;;;5038798;28;1461;-72
2022/06/13 00:13:08;;;;;;;;;;;;;;;;;;5039516;28;1349;-71
2022/06/13 00:15:34;;;;;;;;;;;;;;;;;;5037456;28;1447;-71
2022/06/13 00:18:00;;;;;;;;;;;;;;;;;;5039690;28;1404;-71
2022/06/13 00:20:27;;;;;;;;;;;;;;;;;;5051125;28;1079;-71
2022/06/13 00:22:53;;;;;;;;;;;;;;;;;;5049462;28;1380;-71
2022/06/13 00:25:19;;;;;;;;;;;;;;;;;;5036902;28;1923;-71
2022/06/13 00:27:45;;;;;;;;;;;;;;;;;;5046853;28;1233;-72
2022/06/13 00:30:13;;;;;;;;;;;;;;;;;;5042357;28;1434;-72
2022/06/13 00:32:39;;;;;;;;;;;;;;;;;;5046178;28;1209;-72
2022/06/13 00:35:06;;;;;;;;;;;;;;;;;;5031517;28;1408;-72
2022/06/13 00:37:32;;;;;;;;;;;;;;;;;;5032164;28;1296;-72
2022/06/13 00:39:58;;;;;;;;;;;;;;;;;;5026427;28;1433;-73
2022/06/13 00:42:25;;;;;;;;;;;;;;;;;;5037387;28;1373;-72
2022/06/13 00:45:06;;;;;;;;;;;;;;;;;;5032552;28;1976;-72
2022/06/13 00:47:33;;;;;;;;;;;;;;;;;;5034613;28;1341;-72
2022/06/13 00:49:59;;;;;;;;;;;;;;;;;;5040979;28;1641;-72
2022/06/13 00:52:27;;;;;;;;;;;;;;;;;;5044221;28;1217;-72
2022/06/13 00:54:53;;;;;;;;;;;;;;;;;;5034633;28;1323;-72
2022/06/13 00:57:20;;;;;;;;;;;;;;;;;;5042982;28;1267;-72
2022/06/13 00:59:47;;;;;;;;;;;;;;;;;;5037081;28;1421;-72
2022/06/13 01:02:13;;;;;;;;;;;;;;;;;;5042196;28;1422;-72
2022/06/13 01:04:40;;;;;;;;;;;;;;;;;;5029877;28;1914;-72
2022/06/13 01:07:07;;;;;;;;;;;;;;;;;;5043471;28;1319;-72
2022/06/13 01:12:20;;;;;;;;;;;;;;;;;;5040824;28;1308;-73
2022/06/13 01:14:50;;;;;;;;;;;;;;;;;;5041171;28;1327;-72
2022/06/13 01:17:20;;;;;;;;;;;;;;;;;;5037175;28;1378;-72
2022/06/13 01:19:57;;;;;;;;;;;;;;;;;;5022472;28;1412;-73
2022/06/13 01:22:33;;;;;;;;;;;;;;;;;;5032182;28;1434;-73
2022/06/13 01:25:07;;;;;;;;;;;;;;;;;;5035328;28;1971;-73
2022/06/13 01:27:41;;;;;;;;;;;;;;;;;;5036135;28;1378;-71
2022/06/13 01:30:15;;;;;;;;;;;;;;;;;;5037208;28;1385;-71
2022/06/13 01:32:54;;;;;;;;;;;;;;;;;;5040857;28;1403;-71
2022/06/13 01:35:27;;;;;;;;;;;;;;;;;;5028836;28;1462;-72
2022/06/13 01:37:56;;;;;;;;;;;;;;;;;;5035966;28;1306;-71
2022/06/13 01:40:25;;;;;;;;;;;;;;;;;;5031270;28;1400;-71
2022/06/13 01:42:54;;;;;;;;;;;;;;;;;;5045633;28;1216;-73
2022/06/13 01:45:22;;;;;;;;;;;;;;;;;;5044166;28;1910;-71
2022/06/13 01:47:50;;;;;;;;;;;;;;;;;;5044117;28;1221;-71
2022/06/13 01:50:19;;;;;;;;;;;;;;;;;;5047552;28;1482;-72
2022/06/13 01:52:58;;;;;;;;;;;;;;;;;;5044815;28;1542;-72
2022/06/13 01:55:25;;;;;;;;;;;;;;;;;;5026253;28;1408;-71
2022/06/13 01:57:53;;;;;;;;;;;;;;;;;;5043265;28;1428;-71
2022/06/13 02:00:19;;;;;;;;;;;;;;;;;;5034248;28;1530;-71
2022/06/13 02:02:47;;;;;;;;;;;;;;;;;;5050124;28;1170;-72
2022/06/13 02:05:14;;;;;;;;;;;;;;;;;;5034899;28;1914;-71
2022/06/13 02:07:42;;;;;;;;;;;;;;;;;;5029524;28;1436;-71
2022/06/13 02:10:10;;;;;;;;;;;;;;;;;;5043986;28;1493;-71
2022/06/13 02:12:37;;;;;;;;;;;;;;;;;;5053567;28;1075;-72
2022/06/13 02:15:04;;;;;;;;;;;;;;;;;;5040608;28;1376;-72
2022/06/13 02:17:32;;;;;;;;;;;;;;;;;;5047190;28;1142;-71
2022/06/13 02:20:01;;;;;;;;;;;;;;;;;;5053190;28;1324;-72
2022/06/13 02:22:27;;;;;;;;;;;;;;;;;;5053103;28;774;-71
2022/06/13 02:24:58;;;;;;;;;;;;;;;;;;5046183;28;1914;-72
2022/06/13 02:27:24;;;;;;;;;;;;;;;;;;5044859;28;1238;-72
2022/06/13 02:29:51;;;;;;;;;;;;;;;;;;5053414;28;1440;-72
2022/06/13 02:32:18;;;;;;;;;;;;;;;;;;5049921;28;1410;-71
2022/06/13 02:34:46;;;;;;;;;;;;;;;;;;5030533;28;2137;-73
2022/06/13 02:37:12;;;;;;;;;;;;;;;;;;5034049;28;1389;-72
2022/06/13 02:39:40;;;;;;;;;;;;;;;;;;5031236;28;1325;-72
2022/06/13 02:42:10;;;;;;;;;;;;;;;;;;5042748;28;1174;-73
2022/06/13 02:44:37;;;;;;;;;;;;;;;;;;5052886;28;775;-72
2022/06/13 02:47:04;;;;;;;;;;;;;;;;;;5040281;28;1906;-71
2022/06/13 02:49:31;;;;;;;;;;;;;;;;;;5045246;28;1326;-71
2022/06/13 02:51:59;;;;;;;;;;;;;;;;;;5030009;28;1677;-72
2022/06/13 02:54:27;;;;;;;;;;;;;;;;;;5031385;28;1366;-72
2022/06/13 02:59:43;;;;;;;;;;;;;;;;;;5047875;28;1297;-73
2022/06/13 03:02:09;;;;;;;;;;;;;;;;;;5052387;28;1145;-72
2022/06/13 03:04:36;;;;;;;;;;;;;;;;;;5052528;28;753;-72
2022/06/13 03:07:08;;;;;;;;;;;;;;;;;;5044401;28;1971;-72
2022/06/13 03:09:36;;;;;;;;;;;;;;;;;;5039957;28;1405;-71
2022/06/13 03:12:04;;;;;;;;;;;;;;;;;;5050860;28;1122;-72
2022/06/13 03:14:35;;;;;;;;;;;;;;;;;;5052336;28;986;-72
2022/06/13 03:17:04;;;;;;;;;;;;;;;;;;5044563;28;1452;-72
2022/06/13 03:19:32;;;;;;;;;;;;;;;;;;5045142;28;1332;-73
2022/06/13 03:22:00;;;;;;;;;;;;;;;;;;5052179;28;1133;-71
2022/06/13 03:24:27;;;;;;;;;;;;;;;;;;5052289;28;1080;-72
2022/06/13 03:26:55;;;;;;;;;;;;;;;;;;5041062;28;1914;-73
2022/06/13 03:29:22;;;;;;;;;;;;;;;;;;5044901;28;1316;-72
2022/06/13 03:31:49;;;;;;;;;;;;;;;;;;5052077;28;1059;-72
2022/06/13 03:34:17;;;;;;;;;;;;;;;;;;5049047;28;1424;-72
2022/06/13 03:36:44;;;;;;;;;;;;;;;;;;5042180;28;1308;-72
2022/06/13 03:39:11;;;;;;;;;;;;;;;;;;5040020;28;1415;-72
2022/06/13 03:41:39;;;;;;;;;;;;;;;;;;5030663;28;1415;-72
2022/06/13 03:44:06;;;;;;;;;;;;;;;;;;5036067;28;1571;-72
2022/06/13 03:46:33;;;;;;;;;;;;;;;;;;5031515;28;1922;-72
2022/06/13 03:49:00;;;;;;;;;;;;;;;;;;5030974;28;1427;-72
2022/06/13 03:51:28;;;;;;;;;;;;;;;;;;5040168;28;1567;-72
2022/06/13 03:53:55;;;;;;;;;;;;;;;;;;5032527;28;1388;-72
2022/06/13 03:56:22;;;;;;;;;;;;;;;;;;5038672;28;1106;-73
2022/06/13 03:58:50;;;;;;;;;;;;;;;;;;5027237;28;1454;-73
2022/06/13 04:01:17;;;;;;;;;;;;;;;;;;5030886;28;1360;-74
2022/06/13 04:03:43;;;;;;;;;;;;;;;;;;5032962;28;1447;-74
2022/06/13 04:06:24;;;;;;;;;;;;;;;;;;5037736;28;1974;-74
2022/06/13 04:08:52;;;;;;;;;;;;;;;;;;5038079;28;1404;-75
2022/06/13 04:11:19;;;;;;;;;;;;;;;;;;5035072;28;1376;-74
2022/06/13 04:13:52;;;;;;;;;;;;;;;;;;5047662;28;1185;-75
2022/06/13 04:16:19;;;;;;;;;;;;;;;;;;5051014;28;1114;-74
2022/06/13 04:18:52;;;;;;;;;;;;;;;;;;5029353;28;1605;-74
2022/06/13 04:21:21;;;;;;;;;;;;;;;;;;5030015;28;1475;-74
2022/06/13 04:23:48;;;;;;;;;;;;;;;;;;5041983;28;1326;-73
2022/06/13 04:26:17;;;;;;;;;;;;;;;;;;5032634;28;1973;-71
2022/06/13 04:28:43;;;;;;;;;;;;;;;;;;5035301;28;1424;-73
2022/06/13 04:31:10;;;;;;;;;;;;;;;;;;5050346;28;1122;-73
2022/06/13 04:33:37;;;;;;;;;;;;;;;;;;5051039;28;1079;-73
2022/06/13 04:36:04;;;;;;;;;;;;;;;;;;5050888;28;965;-72
2022/06/13 04:38:30;;;;;;;;;;;;;;;;;;5048973;28;1369;-72
2022/06/13 04:40:57;;;;;;;;;;;;;;;;;;5050600;28;794;-73
2022/06/13 04:43:27;;;;;;;;;;;;;;;;;;5033068;28;1249;-72
2022/06/13 04:45:54;;;;;;;;;;;;;;;;;;5019979;28;1984;-72
2022/06/13 04:48:20;;;;;;;;;;;;;;;;;;5019278;28;1959;-73
2022/06/13 04:50:47;;;;;;;;;;;;;;;;;;5021890;28;1295;-73
2022/06/13 04:53:13;;;;;;;;;;;;;;;;;;5021533;28;1290;-73
2022/06/13 04:55:41;;;;;;;;;;;;;;;;;;5031117;28;1138;-74
2022/06/13 04:58:09;;;;;;;;;;;;;;;;;;5020015;28;1400;-73
2022/06/13 05:00:36;;;;;;;;;;;;;;;;;;5021314;28;1334;-73
2022/06/13 05:03:03;;;;;;;;;;;;;;;;;;5020934;28;1478;-73
2022/06/13 05:05:37;;;;;;;;;;;;;;;;;;5011352;28;1380;-73
2022/06/13 05:08:10;;;;;;;;;;;;;;;;;;5010747;28;1314;-70
2022/06/13 05:10:36;;;;;;;;;;;;;;;;;;5011292;28;1250;-72
2022/06/13 05:13:02;;;;;;;;;;;;;;;;;;5017131;28;1310;-72
2022/06/13 05:15:30;;;;;;;;;;;;;;;;;;5016178;28;1136;-72
2022/06/13 05:18:08;;;;;;;;;;;;;;;;;;5017339;28;1060;-73
2022/06/13 05:20:37;;;;;;;;;;;;;;;;;;5017720;28;1127;-72
2022/06/13 05:23:08;;;;;;;;;;;;;;;;;;5017345;28;886;-72
2022/06/13 05:25:37;;;;;;;;;;;;;;;;;;5040040;28;1828;-71
2022/06/13 05:28:03;;;;;;;;;;;;;;;;;;5046956;28;1977;-73
2022/06/13 05:30:29;;;;;;;;;;;;;;;;;;5046270;28;1000;-73
2022/06/13 05:32:56;;;;;;;;;;;;;;;;;;5038570;28;1125;-74
2022/06/13 05:35:24;;;;;;;;;;;;;;;;;;5048650;28;1121;-73
2022/06/13 05:37:50;;;;;;;;;;;;;;;;;;5055448;28;1087;-73
2022/06/13 05:40:17;;;;;;;;;;;;;;;;;;5056108;28;1324;-74
2022/06/13 05:42:44;;;;;;;;;;;;;;;;;;5056807;28;799;-73
2022/06/13 05:45:11;;;;;;;;;;;;;;;;;;5056752;28;850;-73
2022/06/13 05:47:38;;;;;;;;;;;;;;;;;;5056478;28;1977;-74
2022/06/13 05:50:04;;;;;;;;;;;;;;;;;;5056652;28;1405;-74
2022/06/13 05:52:32;;;;;;;;;;;;;;;;;;5055731;28;1293;-74
2022/06/13 05:54:58;;;;;;;;;;;;;;;;;;5056678;28;901;-74
2022/06/13 05:57:24;;;;;;;;;;;;;;;;;;5056781;28;1076;-74
2022/06/13 05:59:50;;;;;;;;;;;;;;;;;;5056775;28;1312;-73
2022/06/13 06:02:16;;;;;;;;;;;;;;;;;;5056757;28;877;-73
2022/06/13 06:04:42;;;;;;;;;;;;;;;;;;5056718;28;988;-74
2022/06/13 06:07:09;;;;;;;;;;;;;;;;;;5056401;28;1910;-74
2022/06/13 06:09:36;;;;;;;;;;;;;;;;;;5056776;28;1421;-73
2022/06/13 06:12:02;;;;;;;;;;;;;;;;;;5056532;28;1076;-73
2022/06/13 06:14:28;;;;;;;;;;;;;;;;;;5056786;28;1052;-73
2022/06/13 06:16:55;;;;;;;;;;;;;;;;;;5056304;28;916;-73
2022/06/13 06:19:22;;;;;;;;;;;;;;;;;;5056607;28;1282;-73
2022/06/13 06:21:48;;;;;;;;;;;;;;;;;;5055537;28;1136;-74
2022/06/13 06:24:14;;;;;;;;;;;;;;;;;;5054349;28;1063;-73
2022/06/13 06:26:42;;;;;;;;;;;;;;;;;;5053315;28;1910;-73
2022/06/13 06:29:08;;;;;;;;;;;;;;;;;;5053303;28;1429;-74
2022/06/13 06:31:34;;;;;;;;;;;;;;;;;;5053300;28;965;-73
2022/06/13 06:34:00;;;;;;;;;;;;;;;;;;5053088;28;1067;-73
2022/06/13 06:36:27;;;;;;;;;;;;;;;;;;5053020;28;921;-74
2022/06/13 06:38:53;;;;;;;;;;;;;;;;;;5052885;28;1396;-73
2022/06/13 06:41:19;;;;;;;;;;;;;;;;;;5053036;28;925;-74
2022/06/13 06:43:47;;;;;;;;;;;;;;;;;;5051881;28;1239;-73
2022/06/13 06:46:14;;;;;;;;;;;;;;;;;;5051260;28;1985;-72
2022/06/13 06:48:40;;;;;;;;;;;;;;;;;;5051600;28;1325;-73
2022/06/13 06:51:07;;;;;;;;;;;;;;;;;;5051588;28;1131;-74
2022/06/13 06:59:53;;;;;;;;;;;;;;;;;;5046758;28;1528;-73
2022/06/13 07:01:48;;;;;;;;;;;;;;;;;;5012779;28;1268;-73
2022/06/13 07:04:15;;;;;;;;;;;;;;;;;;5013008;28;942;-73
2022/06/13 07:06:41;;;;;;;;;;;;;;;;;;5012580;28;1973;-74
2022/06/13 07:09:07;;;;;;;;;;;;;;;;;;5012699;28;1322;-72
2022/06/13 07:14:18;;;;;;;;;;;;;;;;;;5011366;28;855;-72
2022/06/13 07:16:45;;;;;;;;;;;;;;;;;;5018196;28;1054;-74
2022/06/13 07:19:11;;;;;;;;;;;;;;;;;;5020300;28;1326;-74
2022/06/13 07:21:37;;;;;;;;;;;;;;;;;;5030257;28;1212;-73
2022/06/13 07:24:04;;;;;;;;;;;;;;;;;;5032089;28;1108;-74
2022/06/13 07:26:31;;;;;;;;;;;;;;;;;;5030130;28;1954;-74
2022/06/13 07:28:57;;;;;;;;;;;;;;;;;;5029815;28;1400;-71
2022/06/13 07:31:26;;;;;;;;;;;;;;;;;;5031165;28;1076;-73
2022/06/13 07:33:52;;;;;;;;;;;;;;;;;;5031699;28;1072;-73
2022/06/13 07:36:19;;;;;;;;;;;;;;;;;;5028579;28;1335;-73
2022/06/13 07:38:46;;;;;;;;;;;;;;;;;;5040844;28;1401;-73
2022/06/13 07:41:14;;;;;;;;;;;;;;;;;;5051484;28;1339;-73
2022/06/13 07:43:42;;;;;;;;;;;;;;;;;;5051656;28;944;-73
2022/06/13 07:46:09;;;;;;;;;;;;;;;;;;5043669;28;2085;-72
2022/06/13 07:48:37;;;;;;;;;;;;;;;;;;5038001;28;1918;-73
2022/06/13 07:51:05;;;;;;;;;;;;;;;;;;5043259;28;1121;-73
2022/06/13 07:53:31;;;;;;;;;;;;;;;;;;5050678;28;1087;-72
2022/06/13 07:55:57;;;;;;;;;;;;;;;;;;5051131;28;1207;-73
2022/06/13 07:58:26;;;;;;;;;;;;;;;;;;5037719;28;1386;-73
2022/06/13 08:00:53;;;;;;;;;;;;;;;;;;5039589;28;1138;-73
2022/06/13 08:03:20;;;;;;;;;;;;;;;;;;5037020;28;1358;-72
2022/06/13 08:05:48;;;;;;;;;;;;;;;;;;5047446;28;1138;-72
2022/06/13 08:08:14;;;;;;;;;;;;;;;;;;5050786;28;1922;-73
2022/06/13 08:10:40;;;;;;;;;;;;;;;;;;5039585;28;1343;-72
2022/06/13 08:13:07;;;;;;;;;;;;;;;;;;5032708;28;1378;-72
2022/06/13 08:15:33;;;;;;;;;;;;;;;;;;5041970;28;1505;-72
2022/06/13 08:17:59;;;;;;;;;;;;;;;;;;5049044;28;1162;-72
2022/06/13 08:20:25;;;;;;;;;;;;;;;;;;5051125;28;1338;-72
2022/06/13 08:22:55;;;;;;;;;;;;;;;;;;5035289;28;1173;-72
2022/06/13 08:25:21;;;;;;;;;;;;;;;;;;5031126;28;1079;-73
2022/06/13 08:27:47;;;;;;;;;;;;;;;;;;5023408;28;1922;-74
2022/06/13 08:30:14;;;;;;;;;;;;;;;;;;5020124;28;1424;-71
2022/06/13 08:32:41;;;;;;;;;;;;;;;;;;5037994;28;1274;-73
2022/06/13 08:35:07;;;;;;;;;;;;;;;;;;5021690;28;1106;-74
2022/06/13 08:37:33;;;;;;;;;;;;;;;;;;5022246;28;1292;-73
2022/06/13 08:40:01;;;;;;;;;;;;;;;;;;5016110;28;1912;-74
2022/06/13 08:42:36;;;;;;;;;;;;;;;;;;5033450;28;1059;-74
2022/06/13 08:45:03;;;;;;;;;;;;;;;;;;5041019;28;1334;-74
2022/06/13 08:47:33;;;;;;;;;;;;;;;;;;5038909;28;1927;-74
2022/06/13 08:52:43;;;;;;;;;;;;;;;;;;5045182;28;2466;-72
2022/06/13 08:55:11;;;;;;;;;;;;;;;;;;5049365;28;1064;-70
2022/06/13 08:57:39;;;;;;;;;;;;;;;;;;5034109;28;1664;-70
2022/06/13 09:00:08;;;;;;;;;;;;;;;;;;5048183;28;1321;-70
2022/06/13 09:02:36;;;;;;;;;;;;;;;;;;5029725;28;1730;-69
2022/06/13 09:05:04;;;;;;;;;;;;;;;;;;5026730;28;1539;-71
2022/06/13 09:07:32;;;;;;;;;;;;;;;;;;5029953;28;1910;-71
2022/06/13 09:09:59;;;;;;;;;;;;;;;;;;5025225;28;1586;-71
2022/06/13 09:12:28;;;;;;;;;;;;;;;;;;5027058;28;1413;-71
2022/06/13 09:14:57;;;;;;;;;;;;;;;;;;5034960;28;1499;-72
2022/06/13 09:17:24;;;;;;;;;;;;;;;;;;5023242;28;1536;-70
2022/06/13 09:19:54;;;;;;;;;;;;;;;;;;5027383;28;1518;-70
2022/06/13 09:22:22;;;;;;;;;;;;;;;;;;5030273;28;1341;-71
2022/06/13 09:24:52;;;;;;;;;;;;;;;;;;5030773;28;1022;-71
2022/06/13 09:27:19;;;;;;;;;;;;;;;;;;5024323;28;1973;-71
2022/06/13 09:29:48;;;;;;;;;;;;;;;;;;5030335;28;1422;-71
2022/06/13 09:32:15;;;;;;;;;;;;;;;;;;5024028;28;1694;-71
2022/06/13 09:34:42;;;;;;;;;;;;;;;;;;5029910;28;1200;-71
2022/06/13 09:37:10;;;;;;;;;;;;;;;;;;5030096;28;1163;-70
2022/06/13 09:39:36;;;;;;;;;;;;;;;;;;5030310;28;1045;-70
2022/06/13 09:42:21;;;;;;;;;;;;;;;;;;5029439;28;1399;-70
2022/06/13 09:44:53;;;;;;;;;;;;;;;;;;5029561;28;1430;-71
2022/06/13 09:47:21;;;;;;;;;;;;;;;;;;5030046;28;1977;-70
2022/06/13 09:49:49;;;;;;;;;;;;;;;;;;5029913;28;1399;-70
2022/06/13 09:52:18;;;;;;;;;;;;;;;;;;5024946;28;1600;-71
2022/06/13 09:54:46;;;;;;;;;;;;;;;;;;5030192;28;1146;-71
2022/06/13 09:57:14;;;;;;;;;;;;;;;;;;5030568;28;1096;-70
2022/06/13 09:59:55;;;;;;;;;;;;;;;;;;5033516;28;1046;-71
2022/06/13 10:02:24;;;;;;;;;;;;;;;;;;5027859;28;1363;-70
2022/06/13 10:04:53;;;;;;;;;;;;;;;;;;5034180;28;1245;-70
2022/06/13 10:07:20;;;;;;;;;;;;;;;;;;5033645;28;1919;-70
2022/06/13 10:09:47;;;;;;;;;;;;;;;;;;5033303;28;1431;-70
2022/06/13 10:12:16;;;;;;;;;;;;;;;;;;5027317;28;1625;-71
2022/06/13 10:14:47;;;;;;;;;;;;;;;;;;5033690;28;1102;-71
2022/06/13 10:17:17;;;;;;;;;;;;;;;;;;5027006;28;1371;-70
2022/06/13 10:19:48;;;;;;;;;;;;;;;;;;5031244;28;1376;-71
2022/06/13 10:22:15;;;;;;;;;;;;;;;;;;5024419;28;1521;-71
2022/06/13 10:24:45;;;;;;;;;;;;;;;;;;5033427;28;1244;-72
2022/06/13 10:27:14;;;;;;;;;;;;;;;;;;5032663;28;1380;-72
2022/06/13 10:29:44;;;;;;;;;;;;;;;;;;5033332;28;1256;-72
2022/06/13 10:32:13;;;;;;;;;;;;;;;;;;5025666;28;1420;-72
2022/06/13 10:34:42;;;;;;;;;;;;;;;;;;5030115;28;1374;-72
2022/06/13 10:37:12;;;;;;;;;;;;;;;;;;5030737;28;1391;-72
2022/06/13 10:39:38;;;;;;;;;;;;;;;;;;5033186;28;1425;-72
2022/06/13 10:42:06;;;;;;;;;;;;;;;;;;5037734;28;1393;-71
2022/06/13 10:44:32;;;;;;;;;;;;;;;;;;5033165;28;929;-71
2022/06/13 10:46:59;;;;;;;;;;;;;;;;;;5032871;28;1143;-71
2022/06/13 10:49:25;;;;;;;;;;;;;;;;;;5032890;28;1910;-72
2022/06/13 10:51:52;;;;;;;;;;;;;;;;;;5028041;28;1458;-70
2022/06/13 10:54:21;;;;;;;;;;;;;;;;;;5036150;28;1368;-71
2022/06/13 10:56:47;;;;;;;;;;;;;;;;;;5041374;28;1247;-70
2022/06/13 10:59:24;;;;;;;;;;;;;;;;;;5031256;28;1339;-71
2022/06/13 11:01:58;;;;;;;;;;;;;;;;;;5031492;28;1446;-70
2022/06/13 11:04:24;;;;;;;;;;;;;;;;;;5033122;28;1198;-71
2022/06/13 11:06:51;;;;;;;;;;;;;;;;;;5028800;28;1490;-71
2022/06/13 11:09:21;;;;;;;;;;;;;;;;;;5028879;28;1977;-70
2022/06/13 11:11:47;;;;;;;;;;;;;;;;;;5031369;28;1483;-71
2022/06/13 11:14:21;;;;;;;;;;;;;;;;;;5032714;28;1130;-70
2022/06/13 11:25:02;;;;;;;;;;;;;;;;;;5035046;28;1975;-70
2022/06/13 11:27:41;;;;;;;;;;;;;;;;;;5027411;28;1382;-71
2022/06/13 11:30:21;;;;;;;;;;;;;;;;;;5029558;28;1515;-70
2022/06/13 11:32:55;;;;;;;;;;;;;;;;;;5030677;28;1509;-72
2022/06/13 11:35:27;;;;;;;;;;;;;;;;;;5012698;28;1123;-71
2022/06/13 11:37:53;;;;;;;;;;;;;;;;;;5012715;28;993;-71
2022/06/13 11:40:26;;;;;;;;;;;;;;;;;;5026217;28;1507;-71
2022/06/13 11:42:52;;;;;;;;;;;;;;;;;;5031089;28;1808;-71
2022/06/13 11:45:20;;;;;;;;;;;;;;;;;;5032138;28;1125;-70
2022/06/13 11:47:47;;;;;;;;;;;;;;;;;;5031741;28;1918;-70
2022/06/13 11:50:15;;;;;;;;;;;;;;;;;;5031108;28;1462;-70
2022/06/13 11:55:36;;;;;;;;;;;;;;;;;;5012236;28;1554;-71
2022/06/13 11:58:03;;;;;;;;;;;;;;;;;;5030874;28;1375;-71
2022/06/13 12:00:35;;;;;;;;;;;;;;;;;;5031590;28;1340;-72
2022/06/13 12:03:06;;;;;;;;;;;;;;;;;;5030180;28;1071;-70
2022/06/13 12:05:33;;;;;;;;;;;;;;;;;;5023937;28;1471;-70
2022/06/13 12:08:00;;;;;;;;;;;;;;;;;;5028127;28;1914;-71
2022/06/13 12:10:27;;;;;;;;;;;;;;;;;;5034243;28;1391;-71
2022/06/13 12:12:54;;;;;;;;;;;;;;;;;;5030050;28;1376;-71
2022/06/13 12:15:22;;;;;;;;;;;;;;;;;;5031634;28;1274;-71
2022/06/13 12:17:49;;;;;;;;;;;;;;;;;;5031425;28;1107;-71
2022/06/13 12:20:16;;;;;;;;;;;;;;;;;;5029316;28;1468;-71
2022/06/13 12:22:44;;;;;;;;;;;;;;;;;;5030550;28;1150;-71
2022/06/13 12:25:11;;;;;;;;;;;;;;;;;;5027940;28;1379;-71
2022/06/13 12:27:43;;;;;;;;;;;;;;;;;;5030475;28;1228;-71
2022/06/13 12:30:17;;;;;;;;;;;;;;;;;;5027728;28;1984;-69
2022/06/13 12:32:45;;;;;;;;;;;;;;;;;;5027044;28;1218;-69
2022/06/13 12:35:15;;;;;;;;;;;;;;;;;;5031244;28;893;-71
2022/06/13 12:37:43;;;;;;;;;;;;;;;;;;5028806;28;1420;-71
2022/06/13 12:40:12;;;;;;;;;;;;;;;;;;5030977;28;1370;-71
2022/06/13 12:42:44;;;;;;;;;;;;;;;;;;5030603;28;904;-71
2022/06/13 12:45:22;;;;;;;;;;;;;;;;;;5029350;28;1464;-72
2022/06/13 12:47:55;;;;;;;;;;;;;;;;;;5032782;28;1158;-71
2022/06/13 12:50:29;;;;;;;;;;;;;;;;;;5031198;28;1333;-72
2022/06/13 12:53:00;;;;;;;;;;;;;;;;;;5023880;28;1431;-72
2022/06/13 12:55:30;;;;;;;;;;;;;;;;;;5030633;28;1147;-72
2022/06/13 12:58:00;;;;;;;;;;;;;;;;;;5030324;28;1143;-71
2022/06/13 13:00:30;;;;;;;;;;;;;;;;;;5028235;28;1477;-70
2022/06/13 13:03:02;;;;;;;;;;;;;;;;;;5029296;28;1411;-71
2022/06/13 13:05:31;;;;;;;;;;;;;;;;;;5024173;28;1259;-70
2022/06/13 13:08:01;;;;;;;;;;;;;;;;;;5026954;28;1443;-70
2022/06/13 13:10:38;;;;;;;;;;;;;;;;;;5024799;28;1395;-72
2022/06/13 13:13:10;;;;;;;;;;;;;;;;;;5029771;28;1348;-72
2022/06/13 13:15:41;;;;;;;;;;;;;;;;;;5021897;28;2125;-72
2022/06/13 13:18:11;;;;;;;;;;;;;;;;;;5024409;28;1403;-72
2022/06/13 13:20:38;;;;;;;;;;;;;;;;;;5028651;28;1493;-71
2022/06/13 13:23:06;;;;;;;;;;;;;;;;;;5030144;28;1178;-72
2022/06/13 13:25:33;;;;;;;;;;;;;;;;;;5030262;28;905;-70
2022/06/13 13:28:02;;;;;;;;;;;;;;;;;;5030272;28;1005;-71
2022/06/13 13:30:29;;;;;;;;;;;;;;;;;;5027522;28;1914;-70
2022/06/13 13:33:02;;;;;;;;;;;;;;;;;;5027278;28;1391;-71
2022/06/13 13:35:30;;;;;;;;;;;;;;;;;;5038982;28;1343;-71
2022/06/13 13:37:56;;;;;;;;;;;;;;;;;;5034276;28;1087;-71
2022/06/13 13:40:25;;;;;;;;;;;;;;;;;;5033246;28;1438;-71
2022/06/13 13:42:52;;;;;;;;;;;;;;;;;;5031771;28;1387;-71
2022/06/13 13:45:26;;;;;;;;;;;;;;;;;;5032278;28;1505;-71
2022/06/13 13:47:55;;;;;;;;;;;;;;;;;;5030679;28;1340;-71
2022/06/13 13:50:24;;;;;;;;;;;;;;;;;;5033952;28;1914;-71
2022/06/13 13:52:51;;;;;;;;;;;;;;;;;;5033999;28;1149;-71
2022/06/13 13:55:18;;;;;;;;;;;;;;;;;;5030593;28;1466;-71
2022/06/13 13:57:45;;;;;;;;;;;;;;;;;;5033574;28;1087;-71
2022/06/13 14:00:14;;;;;;;;;;;;;;;;;;5031799;28;1406;-70
2022/06/13 14:02:45;;;;;;;;;;;;;;;;;;5032954;28;1344;-69
2022/06/13 14:05:15;;;;;;;;;;;;;;;;;;5029330;28;1514;-71
2022/06/13 14:07:45;;;;;;;;;;;;;;;;;;5029103;28;1151;-69
2022/06/13 14:10:13;;;;;;;;;;;;;;;;;;5013855;28;1977;-71
2022/06/13 14:12:58;;;;;;;;;;;;;;;;;;5020804;28;1516;-71
2022/06/13 14:15:31;;;;;;;;;;;;;;;;;;5030783;28;1275;-71
2022/06/13 14:17:57;;;;;;;;;;;;;;;;;;5033064;28;1474;-71
2022/06/13 14:20:24;;;;;;;;;;;;;;;;;;5021491;28;1414;-70
2022/06/13 14:22:53;;;;;;;;;;;;;;;;;;5028597;28;1380;-71
2022/06/13 14:25:21;;;;;;;;;;;;;;;;;;5029813;28;1435;-71
2022/06/13 14:27:52;;;;;;;;;;;;;;;;;;5024867;28;1447;-72
2022/06/13 14:33:03;;;;;;;;;;;;;;;;;;5032766;28;1446;-71
2022/06/13 14:35:45;;;;;;;;;;;;;;;;;;5027537;28;1080;-71
2022/06/13 14:38:17;;;;;;;;;;;;;;;;;;5032860;28;1170;-71
2022/06/13 14:40:44;;;;;;;;;;;;;;;;;;5028378;28;1700;-71
2022/06/13 14:43:12;;;;;;;;;;;;;;;;;;5031255;28;1380;-71
2022/06/13 14:45:38;;;;;;;;;;;;;;;;;;5027669;28;1051;-71
2022/06/13 14:48:15;;;;;;;;;;;;;;;;;;5032686;28;1417;-69
2022/06/13 14:50:43;;;;;;;;;;;;;;;;;;5028976;28;1988;-71
2022/06/13 14:53:31;;;;;;;;;;;;;;;;;;5049404;22;1972;-70
2022/06/13 14:56:16;;;;;;;;;;;;;;;;;;5033974;28;1528;-70
2022/06/13 14:58:55;;;;;;;;;;;;;;;;;;5038690;28;1541;-69
2022/06/13 15:01:22;;;;;;;;;;;;;;;;;;5031881;28;1669;-69
2022/06/13 15:04:04;;;;;;;;;;;;;;;;;;5018388;28;1689;-70
2022/06/13 15:06:30;;;;;;;;;;;;;;;;;;5034083;28;1286;-70
2022/06/13 15:09:01;;;;;;;;;;;;;;;;;;5032684;28;1914;-70
2022/06/13 15:11:27;;;;;;;;;;;;;;;;;;5032441;28;1143;-71
2022/06/13 15:13:53;;;;;;;;;;;;;;;;;;5031419;28;1589;-71
2022/06/13 15:16:21;;;;;;;;;;;;;;;;;;5037917;28;1483;-72
2022/06/13 15:18:53;;;;;;;;;;;;;;;;;;5036619;28;1594;-71
2022/06/13 15:21:19;;;;;;;;;;;;;;;;;;5015238;28;1121;-71
2022/06/13 15:23:46;;;;;;;;;;;;;;;;;;5024132;28;1387;-70
2022/06/13 15:26:22;;;;;;;;;;;;;;;;;;5040077;28;1356;-70
2022/06/13 15:29:08;;;;;;;;;;;;;;;;;;5028241;28;1899;-70
2022/06/13 15:31:35;;;;;;;;;;;;;;;;;;5033637;28;1486;-73
2022/06/13 15:34:07;;;;;;;;;;;;;;;;;;5017513;28;1475;-73
2022/06/13 15:36:34;;;;;;;;;;;;;;;;;;5043604;28;1170;-73
2022/06/13 15:39:00;;;;;;;;;;;;;;;;;;5052591;28;1083;-73
2022/06/13 15:41:28;;;;;;;;;;;;;;;;;;5036573;28;1696;-73
2022/06/13 15:43:55;;;;;;;;;;;;;;;;;;5041730;28;1498;-73
2022/06/13 15:46:22;;;;;;;;;;;;;;;;;;5051936;28;1052;-73
2022/06/13 15:48:48;;;;;;;;;;;;;;;;;;5052572;28;1123;-74
2022/06/13 15:51:19;;;;;;;;;;;;;;;;;;5031849;28;1914;-72
2022/06/13 15:53:46;;;;;;;;;;;;;;;;;;5037666;28;1561;-73
2022/06/13 15:56:24;;;;;;;;;;;;;;;;;;5028544;28;1424;-72
2022/06/13 15:58:55;;;;;;;;;;;;;;;;;;5042849;28;1523;-73
2022/06/13 16:01:21;;;;;;;;;;;;;;;;;;5013862;28;1676;-72
2022/06/13 16:03:47;;;;;;;;;;;;;;;;;;5030530;28;1502;-71
2022/06/13 16:06:16;;;;;;;;;;;;;;;;;;5020471;28;1785;-71
2022/06/13 16:08:42;;;;;;;;;;;;;;;;;;5031719;28;1016;-72
2022/06/13 16:11:09;;;;;;;;;;;;;;;;;;5031423;28;1926;-71
2022/06/13 16:13:35;;;;;;;;;;;;;;;;;;5031285;28;1387;-72
2022/06/13 16:16:04;;;;;;;;;;;;;;;;;;5031488;28;882;-72
2022/06/13 16:18:33;;;;;;;;;;;;;;;;;;5031209;28;1068;-71
2022/06/13 16:20:59;;;;;;;;;;;;;;;;;;5031340;28;1132;-72
2022/06/13 16:23:25;;;;;;;;;;;;;;;;;;5031270;28;1410;-72
2022/06/13 16:25:52;;;;;;;;;;;;;;;;;;5031497;28;1103;-71
2022/06/13 16:28:18;;;;;;;;;;;;;;;;;;5029591;28;1805;-70
2022/06/13 16:30:48;;;;;;;;;;;;;;;;;;5029771;28;1918;-71
2022/06/13 16:33:15;;;;;;;;;;;;;;;;;;5028268;28;1508;-70
2022/06/13 16:35:44;;;;;;;;;;;;;;;;;;5038259;28;1748;-70
2022/06/13 16:38:15;;;;;;;;;;;;;;;;;;5050207;28;1218;-70
2022/06/13 16:40:42;;;;;;;;;;;;;;;;;;5051373;28;846;-70
2022/06/13 16:43:17;;;;;;;;;;;;;;;;;;5050666;28;1324;-71
2022/06/13 16:45:44;;;;;;;;;;;;;;;;;;5050913;28;1203;-71
2022/06/13 16:48:16;;;;;;;;;;;;;;;;;;5050462;28;1087;-71
2022/06/13 16:50:43;;;;;;;;;;;;;;;;;;5050626;28;1976;-69
2022/06/13 16:53:10;;;;;;;;;;;;;;;;;;5032609;28;1317;-68
2022/06/13 16:55:37;;;;;;;;;;;;;;;;;;5050766;28;1130;-68
2022/06/13 16:58:04;;;;;;;;;;;;;;;;;;5050367;28;1064;-69
2022/06/13 17:00:32;;;;;;;;;;;;;;;;;;5050734;28;948;-69
2022/06/13 17:03:00;;;;;;;;;;;;;;;;;;5050673;28;1285;-71
2022/06/13 17:05:31;;;;;;;;;;;;;;;;;;5050541;28;1083;-70
2022/06/13 17:08:03;;;;;;;;;;;;;;;;;;5049806;28;874;-70
2022/06/13 17:10:29;;;;;;;;;;;;;;;;;;5037981;28;1992;-70
2022/06/13 17:13:02;;;;;;;;;;;;;;;;;;5036366;28;1535;-70
2022/06/13 17:15:33;;;;;;;;;;;;;;;;;;5032532;28;1238;-71
2022/06/13 17:18:00;;;;;;;;;;;;;;;;;;5050169;28;1123;-70
2022/06/13 17:20:27;;;;;;;;;;;;;;;;;;5040466;28;1325;-71
2022/06/13 17:22:54;;;;;;;;;;;;;;;;;;5038352;28;1502;-72
2022/06/13 17:25:22;;;;;;;;;;;;;;;;;;5032273;28;1408;-71
2022/06/13 17:33:16;;;;;;;;;;;;;;;;;;5048028;28;1356;-71
2022/06/13 17:35:42;;;;;;;;;;;;;;;;;;5048094;28;1104;-70
2022/06/13 17:38:09;;;;;;;;;;;;;;;;;;5043679;28;1374;-70
2022/06/13 17:40:37;;;;;;;;;;;;;;;;;;5034827;28;1542;-71
2022/06/13 17:43:03;;;;;;;;;;;;;;;;;;5046604;28;1333;-71
2022/06/13 17:45:29;;;;;;;;;;;;;;;;;;5032668;28;1355;-71
2022/06/13 17:47:56;;;;;;;;;;;;;;;;;;5036117;28;1400;-71